Pagina principale
METAR-TAF:

METAR-TAF

Aeroporti :

Aeroporto di Trieste-Ronchi dei Legionari

Trieste / Ronchi dei Legionari, Italia

latitudine: 45-49N, longitudine: 013-29E, altezza: 12 m

Osservazione

Il bollettino è stato emesso 16 minuti fa, alle 06:50 UTC
Vento 2 kt da direzioni variabili
Temperature 27°C
Umidità 66%
Pressione 1012 hPa
Visibilità 10 km o più

METAR: LIPQ 300650Z AUTO VRB02KT 9999 NCD 27/20 Q1012

Ora: 09:06 (07:06 UTC)

Previsione

Il bollettino è stato emesso 2 ore e 6 minuti fa, alle 05:00 UTC
Previsione valida dal 30 alle 06 UTC al 01 alle 06 UTC
Vento 5 kt da direzioni variabili
Visibilità 10 km o più
nessuna nube inferiore a 1500 m e nessun cumulonembo
Evoluzione graduale
dal 30 alle 10 UTC al 30 alle 12 UTC
Vento 10 kt da sud
Evoluzione graduale
dal 30 alle 21 UTC al 30 alle 23 UTC
Vento 5 kt da direzioni variabili

TAF: LIPQ 300500Z 3006/0106 VRB05KT CAVOK BECMG 3010/3012 19010KT BECMG 3021/3023 VRB05KT

Osservazioni e previsioni meteorologiche di più di 4000 aeroporti (messaggi METAR e TAF).

Le stazioni disponibili sono rappresentate dai dischi gialli e rossi sulla carta.

Puntare il mouse per vedere il nome della stazione.

Clicca sopra per visualizzare le osservazioni e previsioni meteorologiche.

Per cambiare la mappa : fare clic sui pulsanti verdi con una croce nera per ingrandire, il pulsante verde con un trattino per diminuire, o sulla freccia verde per le mappe adiacenti.


METAR-TAF: